Stations météo

réclame
Mon MeteoGroup
Mont Aigoual, France (7560): Température de l'air & dewpoint: 13.11.2017 20:00:00 - 19.11.2017 20:00:00 (CET)Mont Aigoual, France (7560): Vitesse du vent & gusts: 13.11.2017 20:00:00 - 19.11.2017 20:00:00 (CET)Mont Aigoual, France (7560): Direction du vent: 13.11.2017 20:00:00 - 19.11.2017 20:00:00 (CET)Mont Aigoual, France (7560): visibility: 13.11.2017 20:00:00 - 19.11.2017 20:00:00 (CET)Mont Aigoual, France (7560): Quantités de précipitations: 13.11.2017 20:00:00 - 19.11.2017 20:00:00 (CET)
Date & Time tt [°C] td [°C] ff [km/h] ff [knt] fx [km/h] fx [knt] dd vv [km] rr [mm]
19.11.2017 20:00:00 1,2 0,6 86 47 114 62 N 20 0,0
19.11.2017 19:00:00 1,5 0,6 87 47 112 61 N 20 0,0
19.11.2017 18:00:00 1,4 0,7 84 45 106 57 NNW 20 0,0
19.11.2017 17:00:00 1,8 0,5 76 41 104 56 N 20 0,0
19.11.2017 16:00:00 2,5 -0,1 50 27 77 41 N 20 0,0
19.11.2017 15:00:00 3,1 -2,0 50 27 71 38 NNW 20 0,0
19.11.2017 14:00:00 2,9 -2,4 50 27 78 42 NNW 20 0,0
19.11.2017 13:00:00 3,4 -1,0 51 28 88 48 N 20 0,0
19.11.2017 12:00:00 3,0 -0,6 56 30 86 47 N 20 0,0
19.11.2017 11:00:00 1,9 -0,5 61 33 88 47 N 20 0,0
19.11.2017 10:00:00 1,9 -1,5 37 20 66 36 N 20 0,0
19.11.2017 09:00:00 2,0 -5,9 47 25 74 40 N 20 0,0
19.11.2017 08:00:00 2,1 -20,5 45 24 80 43 N 20 0,0
19.11.2017 07:00:00 1,8 -12,8 56 31 78 42 N 20 0,0
19.11.2017 06:00:00 2,3 -10,3 55 30 76 41 N 20 0,0
19.11.2017 05:00:00 2,6 -10,3 56 31 75 40 N 20 0,0
19.11.2017 04:00:00 3,2 -12,3 58 31 82 44 N 20 0,0
19.11.2017 03:00:00 3,4 -27,9 56 31 74 40 N 20 0,0
19.11.2017 02:00:00 2,8 -25,9 60 33 77 41 NNW 20 0,0
19.11.2017 01:00:00 3,5 -24,3 53 29 71 38 N 20 0,0
19.11.2017 00:00:00 4,0 -25,0 46 25 64 35 N 20 0,0
18.11.2017 23:00:00 4,5 -30,1 41 22 53 29 N 20 0,0
18.11.2017 22:00:00 4,6 -25,7 34 18 49 26 N 20 0,0
18.11.2017 21:00:00 3,4 -21,7 36 19 55 30 N 20 0,0
18.11.2017 20:00:00 3,5 -20,8 38 21 51 27 N 20 0,0
18.11.2017 19:00:00 2,9 -17,9 40 22 51 28 N 20 0,0
18.11.2017 18:00:00 3,3 -16,4 37 20 50 27 N 20 0,0
18.11.2017 17:00:00 3,1 -10,2 36 19 49 26 N 20 0,0
18.11.2017 16:00:00 4,4 -13,5 24 13 41 22 N 20 0,0
18.11.2017 15:00:00 4,9 -10,1 23 12 35 19 N 20 0,0
18.11.2017 14:00:00 5,9 -14,2 23 12 36 19 N 20 0,0
18.11.2017 13:00:00 6,3 -8,8 11 6 26 14 N 20 0,0
18.11.2017 12:00:00 6,8 -20,7 11 6 30 16 N 20 0,0
18.11.2017 11:00:00 5,3 -17,8 23 13 34 18 NNE 20 0,0
18.11.2017 10:00:00 4,5 -16,0 27 15 41 22 N 20 0,0
18.11.2017 09:00:00 2,7 -11,6 28 15 43 23 N 20 0,0
18.11.2017 08:00:00 2,6 -12,5 31 17 41 22 N 20 0,0
18.11.2017 07:00:00 2,8 -12,7 29 16 36 19 N 20 0,0
18.11.2017 06:00:00 0,7 -6,0 22 12 31 17 N 20 0,0
18.11.2017 05:00:00 2,1 -7,5 25 13 37 20 N 20 0,0
18.11.2017 04:00:00 0,9 -5,6 34 18 44 24 N 20 0,0
18.11.2017 03:00:00 1,0 -4,8 29 16 51 28 N 20 0,0
18.11.2017 02:00:00 1,6 -5,3 31 17 70 38 N 20 0,0
18.11.2017 01:00:00 0,1 -2,9 50 27 67 36 N 20 0,0
18.11.2017 00:00:00 -0,9 -2,3 46 25 71 38 N 20 0,0
17.11.2017 23:00:00 0,7 -2,7 54 29 73 40 N 20 0,0
17.11.2017 22:00:00 0,5 -2,1 53 28 74 40 N 20 0,0
17.11.2017 21:00:00 1,4 -2,0 35 19 66 36 N 20 0,0
17.11.2017 20:00:00 2,5 -2,0 42 23 68 37 N 20 0,0
17.11.2017 19:00:00 2,5 -1,9 39 21 61 33 N 20 0,0
17.11.2017 18:00:00 3,1 -1,7 48 26 66 35 N 20 0,0
17.11.2017 17:00:00 4,5 -1,3 45 25 62 34 NNW 20 0,0
17.11.2017 16:00:00 5,6 -1,8 41 22 65 35 NNW 20 0,0
17.11.2017 15:00:00 5,9 -1,5 38 21 54 29 NNW 20 0,0
17.11.2017 14:00:00 5,9 -1,3 37 20 58 31 N 20 0,0
17.11.2017 13:00:00 7,1 -1,8 30 16 45 24 N 20 0,0
17.11.2017 12:00:00 7,6 -1,1 25 14 53 28 N 20 0,0
17.11.2017 11:00:00 7,2 -1,0 42 23 64 34 N 20 0,0
17.11.2017 10:00:00 6,0 -2,1 42 23 68 37 N 20 0,0
17.11.2017 09:00:00 5,3 -2,8 47 26 63 34 N 20 0,0
17.11.2017 08:00:00 4,5 -3,1 47 26 61 33 N 20 0,0
17.11.2017 07:00:00 5,1 -3,2 45 24 65 35 N 20 0,0
17.11.2017 06:00:00 4,3 -3,5 42 23 61 33 N 20 0,0
17.11.2017 05:00:00 5,1 -4,8 50 27 68 37 N 20 0,0
17.11.2017 04:00:00 5,7 -5,6 47 25 61 33 N 20 0,0
17.11.2017 03:00:00 5,8 -4,9 37 20 57 31 N 20 0,0
17.11.2017 02:00:00 5,5 -4,4 43 23 58 32 N 20 0,0
17.11.2017 01:00:00 5,9 -5,4 47 25 61 33 N 20 0,0
17.11.2017 00:00:00 5,1 -9,1 45 25 61 33 N 20 0,0
16.11.2017 23:00:00 5,5 -8,8 41 22 60 33 N 20 0,0
16.11.2017 22:00:00 5,5 -8,8 45 25 63 34 N 20 0,0
16.11.2017 21:00:00 4,7 -12,7 45 24 55 30 N 20 0,0
16.11.2017 20:00:00 5,2 -10,6 34 18 54 29 N 20 0,0
16.11.2017 19:00:00 4,9 -7,9 30 16 40 21 N 20 0,0
16.11.2017 18:00:00 5,5 -8,8 31 17 40 22 N 20 0,0
16.11.2017 17:00:00 4,3 -5,0 23 13 34 18 NNW 20 0,0
16.11.2017 16:00:00 5,6 -4,3 24 13 30 16 NNW 20 0,0
16.11.2017 15:00:00 6,0 -4,2 17 9 22 12 N 20 0,0
16.11.2017 14:00:00 6,7 -3,6 6 3 9 5 N 20 0,0
16.11.2017 13:00:00 6,6 -4,2 5 3 13 7 NNE 20 0,0
16.11.2017 12:00:00 6,2 -4,6 4 2 11 6 ENE 20 0,0
16.11.2017 11:00:00 6,4 -4,4 2 1 12 7 WNW 20 0,0
16.11.2017 10:00:00 6,7 -5,0 5 3 16 9 SSW 20 0,0
16.11.2017 09:00:00 5,3 -6,9 6 3 13 7 S 20 0,0
16.11.2017 08:00:00 4,1 -8,0 8 5 14 8 SSE 20 0,0
16.11.2017 07:00:00 4,2 -7,6 8 4 17 9 SSE 20 0,0
16.11.2017 06:00:00 4,5 -7,6 13 7 23 12 SSE 20 0,0
16.11.2017 05:00:00 5,0 -7,5 21 11 23 12 S 20 0,0
16.11.2017 04:00:00 4,4 -8,4 12 6 18 10 S 20 0,0
16.11.2017 03:00:00 3,8 -9,2 9 5 14 8 SSE 20 0,0
16.11.2017 02:00:00 3,3 -8,4 4 2 12 7 NE 20 0,0
16.11.2017 01:00:00 3,4 -9,9 9 5 18 10 SW 20 0,0
16.11.2017 00:00:00 3,8 -10,3 13 7 24 13 SW 20 0,0
15.11.2017 23:00:00 3,0 -7,0 23 12 26 14 SSW 20 0,0
15.11.2017 22:00:00 3,5 -6,2 15 8 18 10 S 20 0,0
15.11.2017 21:00:00 4,9 -7,9 14 8 34 18 S 20 0,0
15.11.2017 20:00:00 4,3 -6,0 13 7 19 10 SE 20 0,0
15.11.2017 19:00:00 4,7 -6,0 12 6 16 9 ESE 20 0,0
15.11.2017 18:00:00 4,8 -6,2 8 5 12 7 ESE 20 0,0
15.11.2017 17:00:00 5,4 -6,2 5 3 17 9 ENE 20 0,0
15.11.2017 16:00:00 5,6 -5,4 10 6 20 11 NNW 20 0,0
15.11.2017 15:00:00 5,5 -5,8 16 9 32 17 NNE 20 0,0
15.11.2017 14:00:00 5,8 -6,1 25 13 41 22 N 20 0,0
15.11.2017 13:00:00 6,0 -6,0 34 19 46 25 N 20 0,0
15.11.2017 12:00:00 5,8 -6,5 39 21 66 35 N 20 0,0
15.11.2017 11:00:00 4,9 -7,3 47 26 69 37 N 20 0,0
15.11.2017 10:00:00 4,3 -6,9 52 28 71 39 NNE 20 0,0
15.11.2017 09:00:00 3,4 -8,0 54 29 75 41 N 20 0,0
15.11.2017 08:00:00 2,8 -8,3 62 33 88 48 N 20 0,0
15.11.2017 07:00:00 2,3 -9,6 68 37 86 47 N 20 0,0
15.11.2017 06:00:00 2,5 -9,4 54 29 79 43 NNE 20 0,0
15.11.2017 05:00:00 1,1 -9,8 57 31 74 40 N 20 0,0
15.11.2017 04:00:00 2,4 -9,2 59 32 86 47 N 20 0,0
15.11.2017 03:00:00 1,4 -9,5 65 35 80 43 N 20 0,0
15.11.2017 02:00:00 0,6 -11,2 61 33 79 43 N 20 0,0
15.11.2017 01:00:00 0,5 -15,1 59 32 72 39 N 20 0,0
15.11.2017 00:00:00 0,2 -15,0 34 18 63 34 N 20 0,0
14.11.2017 23:00:00 -0,2 -13,5 45 24 67 36 N 20 0,0
14.11.2017 22:00:00 0,1 -13,6 50 27 69 37 N 20 0,0
14.11.2017 21:00:00 -0,1 -11,8 50 27 65 35 N 20 0,0
14.11.2017 20:00:00 -0,5 -11,9 36 20 70 38 N 20 0,0
14.11.2017 19:00:00 -0,3 -11,1 53 29 76 41 N 20 0,0
14.11.2017 18:00:00 -0,9 -9,5 51 27 74 40 N 20 0,0
14.11.2017 17:00:00 -1,4 -9,1 50 27 74 40 N 20 0,0
14.11.2017 16:00:00 -1,7 -7,8 54 29 75 41 N 20 0,0
14.11.2017 15:00:00 -1,8 -7,7 57 31 82 45 N 20 0,0
14.11.2017 14:00:00 -2,1 -7,2 61 33 83 45 N 20 0,0
14.11.2017 13:00:00 -1,8 -7,1 44 24 93 50 N 20 0,0
14.11.2017 12:00:00 -2,3 -6,8 62 34 89 48 N 20 0,0
14.11.2017 11:00:00 -3,4 -6,2 42 23 83 45 N 20 0,0
14.11.2017 10:00:00 -3,8 -6,3 73 39 130 70 N 20 0,0
14.11.2017 09:00:00 -4,3 -6,3 85 46 127 69 N 20 0,0
14.11.2017 08:00:00 -4,7 -5,9 86 47 121 65 N 20 0,0
14.11.2017 07:00:00 -4,7 -6,5 77 42 123 66 N 20 0,0
14.11.2017 06:00:00 -4,8 -6,3 79 42 126 68 N 20 0,0
14.11.2017 05:00:00 -4,9 -6,9 66 36 122 66 N 20 0,0
14.11.2017 04:00:00 -4,8 -7,1 63 34 116 63 N 20 0,0
14.11.2017 03:00:00 -4,7 -7,0 56 31 144 78 N 20 0,0
14.11.2017 02:00:00 -4,7 -6,7 92 50 139 75 N 20 0,0
14.11.2017 01:00:00 -4,8 -5,8 90 48 150 81 N 20 0,0
14.11.2017 00:00:00 -4,7 -5,7 93 50 131 71 N 20 0,0
13.11.2017 23:00:00 -4,5 -5,6 89 48 129 70 N 8 0,0
13.11.2017 22:00:00 -4,4 -5,4 91 49 126 68 N 2,6 0,0
13.11.2017 21:00:00 -4,4 -5,9 86 46 127 69 N 20 0,0
13.11.2017 20:00:00 -4,3 -5,7 82 45 130 70 N 20 0,0

tt = Température de l'air
td = dewpoint
ff = Vitesse du vent
fx = gusts
dd = Direction du vent
vv = visibility
rr = Quantités de précipitations

stations d'obs. à proximité